Time;durP1;ratioP1;P1;durP2;ratioP2;P2;SDS_P1;SDS_P2;PMS_P1;PMS_P2;Temp;Humidity;BMP_temperature;BMP_pressure;BME280_temperature;BME280_humidity;BME280_pressure;Samples;Min_cycle;Max_cycle;Signal;HPM_P1;HPM_P2
2023/09/23 00:00:58;;;;;;;8.20;6.78;;;;;;;16.61;68.94;98825.66;4895728;29;20057;-77
2023/09/23 00:03:25;;;;;;;8.77;6.43;;;;;;;16.60;69.07;98835.44;4895642;29;20176;-76
2023/09/23 00:05:52;;;;;;;10.25;7.55;;;;;;;16.59;69.25;98833.75;4896149;29;20056;-76
2023/09/23 00:08:19;;;;;;;9.55;7.22;;;;;;;16.58;69.05;98839.22;4896165;29;20062;-76
2023/09/23 00:10:46;;;;;;;8.10;6.78;;;;;;;16.58;69.09;98833.91;4895940;29;20470;-76
2023/09/23 00:13:14;;;;;;;9.90;7.65;;;;;;;16.57;68.99;98838.41;4894193;29;20048;-76
2023/09/23 00:15:41;;;;;;;10.10;6.82;;;;;;;16.54;68.87;98847.53;4894635;29;20066;-76
2023/09/23 00:18:08;;;;;;;8.57;7.32;;;;;;;16.53;69.15;98843.16;4896035;29;20052;-75
2023/09/23 00:20:38;;;;;;;10.05;7.80;;;;;;;16.52;69.12;98848.66;4896020;29;20060;-76
2023/09/23 00:23:06;;;;;;;10.00;7.43;;;;;;;16.50;68.76;98851.44;4895407;29;20052;-76
2023/09/23 00:25:36;;;;;;;10.82;7.60;;;;;;;16.47;68.91;98850.91;4895578;29;20128;-76
2023/09/23 00:28:07;;;;;;;8.38;7.50;;;;;;;16.42;69.09;98851.34;4895521;29;20560;-75
2023/09/23 00:30:35;;;;;;;8.43;7.22;;;;;;;16.40;68.98;98854.16;4895903;29;20154;-76
2023/09/23 00:33:02;;;;;;;10.07;6.80;;;;;;;16.39;69.17;98859.59;4894341;29;20059;-76
2023/09/23 00:35:29;;;;;;;8.90;7.55;;;;;;;16.36;69.20;98855.44;4895195;29;20115;-77
2023/09/23 00:37:56;;;;;;;9.02;6.63;;;;;;;16.35;69.29;98851.09;4895764;29;20064;-76
2023/09/23 00:40:32;;;;;;;11.57;7.43;;;;;;;16.35;69.39;98852.91;4895627;29;20053;-75
2023/09/23 00:43:06;;;;;;;9.40;7.63;;;;;;;16.32;68.86;98863.81;4895499;29;20044;-76
2023/09/23 00:45:34;;;;;;;8.25;7.32;;;;;;;16.33;69.38;98871.66;4894131;29;20044;-75
2023/09/23 00:48:01;;;;;;;8.30;6.88;;;;;;;16.34;69.46;98867.19;4894550;29;20048;-77
2023/09/23 00:50:29;;;;;;;8.48;7.18;;;;;;;16.34;69.52;98875.16;4895552;29;20068;-76
2023/09/23 00:52:57;;;;;;;9.32;7.00;;;;;;;16.32;69.28;98875.28;4895416;29;20771;-76
2023/09/23 00:55:24;;;;;;;8.18;6.53;;;;;;;16.33;69.52;98876.97;4894829;29;20120;-75
2023/09/23 00:57:55;;;;;;;8.93;7.15;;;;;;;16.33;69.75;98881.47;4896459;29;20052;-77
2023/09/23 01:00:31;;;;;;;7.45;6.60;;;;;;;16.34;69.33;98883.13;4898906;29;20044;-76
2023/09/23 01:02:59;;;;;;;8.52;7.07;;;;;;;16.32;69.17;98885.06;4899201;29;20057;-75
2023/09/23 01:05:29;;;;;;;9.77;7.25;;;;;;;16.31;69.06;98886.06;4898911;29;20056;-76
2023/09/23 01:08:11;;;;;;;7.97;7.00;;;;;;;16.28;69.31;98882.72;4899399;29;20068;-76
2023/09/23 01:10:39;;;;;;;7.95;7.05;;;;;;;16.27;69.12;98890.84;4899046;29;20057;-76
2023/09/23 01:13:16;;;;;;;7.65;6.88;;;;;;;16.24;69.14;98894.63;4898674;29;20065;-75
2023/09/23 01:15:43;;;;;;;8.55;7.38;;;;;;;16.23;69.18;98892.94;4898958;29;20513;-76
2023/09/23 01:18:13;;;;;;;9.93;8.20;;;;;;;16.20;69.18;98893.25;4897662;29;20124;-76
2023/09/23 01:20:42;;;;;;;8.55;7.53;;;;;;;16.18;69.30;98892.53;4898574;29;20087;-76
2023/09/23 01:23:10;;;;;;;8.95;7.57;;;;;;;16.15;69.41;98895.50;4898450;29;20131;-76
2023/09/23 01:25:37;;;;;;;10.63;7.25;;;;;;;16.13;69.47;98902.75;4898944;29;20494;-76
2023/09/23 01:28:08;;;;;;;8.88;7.57;;;;;;;16.11;69.49;98905.56;4898625;29;20143;-76
2023/09/23 01:30:35;;;;;;;9.35;7.45;;;;;;;16.10;69.71;98908.34;4898708;29;20056;-76
2023/09/23 01:33:07;;;;;;;9.23;7.43;;;;;;;16.09;69.64;98904.03;4897215;29;20100;-76
2023/09/23 01:35:34;;;;;;;8.23;6.90;;;;;;;16.06;69.63;98906.97;4898830;29;20104;-77
2023/09/23 01:38:02;;;;;;;8.25;6.20;;;;;;;16.04;69.87;98906.28;4898259;29;20104;-76
2023/09/23 01:40:43;;;;;;;10.15;6.90;;;;;;;15.99;69.73;98906.69;4898591;29;20144;-77
2023/09/23 01:43:11;;;;;;;8.93;7.18;;;;;;;15.97;70.19;98908.69;4897932;29;20048;-76
2023/09/23 01:45:38;;;;;;;7.60;6.38;;;;;;;15.94;69.72;98917.75;4897410;29;20049;-77
2023/09/23 01:48:07;;;;;;;7.47;6.22;;;;;;;15.89;69.63;98919.97;4898538;29;20506;-76
2023/09/23 01:50:33;;;;;;;7.85;6.90;;;;;;;15.85;69.68;98921.25;4898480;29;20053;-76
2023/09/23 01:53:01;;;;;;;7.63;6.68;;;;;;;15.80;69.87;98926.13;4897861;29;20053;-76
2023/09/23 01:55:28;;;;;;;7.13;6.30;;;;;;;15.75;69.89;98926.56;4898181;29;20055;-75
2023/09/23 01:57:55;;;;;;;7.63;6.93;;;;;;;15.72;70.19;98937.44;4898208;29;20678;-76
2023/09/23 02:00:25;;;;;;;6.53;5.88;;;;;;;15.68;69.97;98942.22;4898438;29;20052;-75
2023/09/23 02:02:57;;;;;;;7.15;6.45;;;;;;;15.64;70.18;98946.13;4897786;29;20091;-76
2023/09/23 02:05:28;;;;;;;9.48;6.90;;;;;;;15.61;70.02;98949.03;4898064;29;20058;-75
2023/09/23 02:07:55;;;;;;;6.85;6.13;;;;;;;15.57;70.18;98955.59;4898022;29;20064;-75
2023/09/23 02:10:24;;;;;;;7.40;6.70;;;;;;;15.53;70.17;98959.50;4897046;29;20486;-75
2023/09/23 02:12:51;;;;;;;7.40;6.55;;;;;;;15.50;70.27;98960.63;4898039;29;20498;-76
2023/09/23 02:15:18;;;;;;;7.47;6.50;;;;;;;15.44;70.59;98962.03;4896688;29;20053;-75
2023/09/23 02:17:46;;;;;;;6.75;6.05;;;;;;;15.40;70.65;98965.94;4897987;29;20088;-77
2023/09/23 02:20:21;;;;;;;9.23;6.80;;;;;;;15.38;70.60;98967.91;4897728;29;20048;-75
2023/09/23 02:22:53;;;;;;;7.38;6.68;;;;;;;15.35;70.52;98973.47;4878958;29;20487;-75
2023/09/23 02:25:25;;;;;;;6.75;6.05;;;;;;;15.35;70.49;98973.47;4879128;29;20060;-77
2023/09/23 02:27:52;;;;;;;7.60;6.30;;;;;;;15.32;70.45;98973.72;4883609;29;20045;-75
2023/09/23 02:30:19;;;;;;;8.45;6.25;;;;;;;15.29;70.56;98977.50;4897511;29;20080;-75
2023/09/23 02:32:47;;;;;;;7.28;6.50;;;;;;;15.26;70.38;98982.25;4896367;29;20112;-75
2023/09/23 02:35:16;;;;;;;7.18;6.47;;;;;;;15.22;70.33;98984.34;4897612;29;20056;-75
2023/09/23 02:37:45;;;;;;;7.25;6.55;;;;;;;15.19;70.59;98990.75;4897347;29;20674;-76
2023/09/23 02:40:14;;;;;;;8.93;6.82;;;;;;;15.17;70.80;98995.34;4897436;29;20049;-75
2023/09/23 02:42:42;;;;;;;7.53;6.47;;;;;;;15.15;70.95;99002.59;4896915;29;20057;-75
2023/09/23 02:45:10;;;;;;;7.60;6.90;;;;;;;15.14;70.97;99010.69;4897550;29;20177;-74
2023/09/23 02:47:38;;;;;;;13.02;7.20;;;;;;;15.13;71.03;99012.50;4897220;29;20608;-76
2023/09/23 02:50:09;;;;;;;8.98;7.13;;;;;;;15.09;71.16;99009.28;4897677;29;20049;-75
2023/09/23 02:52:37;;;;;;;9.05;7.50;;;;;;;15.10;70.92;99015.41;4897199;29;20044;-76
2023/09/23 02:55:12;;;;;;;7.95;6.95;;;;;;;15.09;70.87;99024.34;4897017;29;20446;-76
2023/09/23 02:57:41;;;;;;;8.68;7.78;;;;;;;15.07;70.88;99032.41;4896014;29;20112;-76
2023/09/23 03:00:18;;;;;;;8.68;7.78;;;;;;;15.05;70.80;99030.88;4897031;29;20136;-75
2023/09/23 03:02:55;;;;;;;8.95;7.82;;;;;;;14.99;70.90;99034.91;4897157;29;20132;-75
2023/09/23 03:05:29;;;;;;;9.15;8.25;;;;;;;15.00;71.11;99036.59;4896840;29;20086;-75
2023/09/23 03:07:58;;;;;;;10.55;8.45;;;;;;;14.97;71.24;99032.41;4897036;29;20222;-76
2023/09/23 03:10:39;;;;;;;9.73;8.73;;;;;;;14.97;71.31;99050.09;4895706;29;20056;-75
2023/09/23 03:13:11;;;;;;;9.73;8.73;;;;;;;14.96;71.19;99043.13;4896658;29;20048;-75
2023/09/23 03:15:49;;;;;;;9.10;8.13;;;;;;;14.93;71.32;99046.91;4896466;29;20056;-75
2023/09/23 03:18:27;;;;;;;10.52;8.40;;;;;;;14.96;71.42;99059.84;4896921;29;20056;-76
2023/09/23 03:20:55;;;;;;;9.30;8.32;;;;;;;14.95;71.58;99062.66;4896121;29;20059;-75
2023/09/23 03:23:23;;;;;;;9.88;8.88;;;;;;;14.96;71.46;99069.63;4896054;29;20083;-76
2023/09/23 03:25:51;;;;;;;10.25;9.02;;;;;;;14.93;71.49;99060.16;4896314;29;20596;-75
2023/09/23 03:28:18;;;;;;;9.90;8.93;;;;;;;14.94;71.64;99059.16;4896777;29;20144;-75
2023/09/23 03:30:49;;;;;;;12.38;8.88;;;;;;;14.93;71.52;99065.44;4896611;29;20139;-75
2023/09/23 03:33:21;;;;;;;9.93;8.73;;;;;;;14.93;71.40;99068.09;4896056;29;20056;-76
2023/09/23 03:35:49;;;;;;;9.68;8.68;;;;;;;14.94;71.24;99069.78;4896268;29;20056;-75
2023/09/23 03:38:15;;;;;;;9.95;8.95;;;;;;;14.93;71.27;99069.91;4896362;29;20059;-75
2023/09/23 03:40:52;;;;;;;9.57;8.65;;;;;;;14.89;70.78;99071.13;4896551;29;20085;-75
2023/09/23 03:43:20;;;;;;;10.50;8.63;;;;;;;14.90;70.90;99071.00;4895896;29;20111;-76
2023/09/23 03:45:48;;;;;;;10.82;8.32;;;;;;;14.87;70.57;99065.13;4895736;29;20067;-75
2023/09/23 03:48:15;;;;;;;10.95;8.82;;;;;;;14.85;70.55;99059.97;4896157;29;20474;-75
2023/09/23 03:50:41;;;;;;;8.07;7.32;;;;;;;14.80;70.55;99063.00;4896457;29;20052;-75
2023/09/23 03:53:10;;;;;;;10.63;7.63;;;;;;;14.77;70.53;99065.91;4895778;29;20573;-76
2023/09/23 03:55:38;;;;;;;9.48;7.50;;;;;;;14.73;70.39;99067.97;4895659;29;20051;-75
2023/09/23 03:58:05;;;;;;;10.65;7.70;;;;;;;14.69;70.34;99069.19;4896095;29;20049;-75
2023/09/23 04:00:34;;;;;;;9.45;8.45;;;;;;;14.64;69.97;99071.41;4896046;29;20055;-76
2023/09/23 04:03:01;;;;;;;10.77;8.52;;;;;;;14.62;70.10;99069.84;4896263;29;20057;-75
2023/09/23 04:05:30;;;;;;;12.75;8.65;;;;;;;14.57;70.09;99070.22;4895587;29;20052;-75
2023/09/23 04:07:58;;;;;;;10.50;8.82;;;;;;;14.53;70.41;99079.41;4896101;29;20056;-75
2023/09/23 04:10:25;;;;;;;11.02;8.38;;;;;;;14.48;70.42;99077.16;4895884;29;20425;-76
2023/09/23 04:12:53;;;;;;;10.60;8.93;;;;;;;14.44;70.50;99087.16;4895742;29;20048;-75
2023/09/23 04:15:24;;;;;;;9.85;8.35;;;;;;;14.40;70.36;99085.75;4895226;29;20417;-76
2023/09/23 04:17:51;;;;;;;11.68;9.02;;;;;;;14.37;70.56;99098.41;4895786;29;20049;-75
2023/09/23 04:20:18;;;;;;;9.93;8.93;;;;;;;14.32;70.41;99094.31;4896035;29;20095;-76
2023/09/23 04:22:48;;;;;;;11.30;9.30;;;;;;;14.29;70.90;99099.06;4895688;29;20116;-75
2023/09/23 04:25:15;;;;;;;11.48;9.65;;;;;;;14.26;70.98;99104.59;4895467;29;20486;-75
2023/09/23 04:27:42;;;;;;;13.10;9.10;;;;;;;14.23;71.29;99097.75;4895606;29;20052;-76
2023/09/23 04:30:11;;;;;;;10.65;9.23;;;;;;;14.23;71.60;99097.75;4895867;29;20109;-76
2023/09/23 04:32:40;;;;;;;10.77;9.63;;;;;;;14.25;71.63;99108.22;4895296;29;20053;-76
2023/09/23 04:35:16;;;;;;;13.65;10.95;;;;;;;14.24;71.66;99107.34;4895696;29;20052;-75
2023/09/23 04:37:43;;;;;;;12.68;10.73;;;;;;;14.27;71.91;99109.75;4876104;29;20092;-76
2023/09/23 04:40:13;;;;;;;17.17;11.90;;;;;;;14.28;71.85;99107.97;4876990;29;20136;-76
2023/09/23 04:42:42;;;;;;;16.88;11.68;;;;;;;14.31;71.78;99123.56;4876842;29;20550;-75
2023/09/23 04:45:10;;;;;;;16.10;11.98;;;;;;;14.32;71.92;99122.63;4876908;29;20148;-77
2023/09/23 04:47:37;;;;;;;14.07;11.68;;;;;;;14.34;71.98;99118.03;4892825;29;20053;-76
2023/09/23 04:50:07;;;;;;;13.38;11.60;;;;;;;14.35;72.11;99113.59;4895635;29;20053;-76
2023/09/23 04:52:34;;;;;;;12.23;10.57;;;;;;;14.37;72.21;99120.44;4895478;29;20557;-76
2023/09/23 04:55:02;;;;;;;13.93;11.60;;;;;;;14.38;71.73;99135.34;4895676;29;20126;-75
2023/09/23 04:57:29;;;;;;;13.80;11.35;;;;;;;14.39;71.86;99137.00;4895279;29;20061;-75
2023/09/23 04:59:57;;;;;;;14.25;11.52;;;;;;;14.40;72.02;99138.72;4894086;29;20482;-76
2023/09/23 05:02:25;;;;;;;14.85;11.70;;;;;;;14.40;71.69;99143.16;4895513;29;20063;-76
2023/09/23 05:04:53;;;;;;;14.18;11.77;;;;;;;14.40;71.94;99141.38;4895225;29;20063;-75
2023/09/23 05:07:21;;;;;;;15.23;12.50;;;;;;;14.41;71.90;99144.84;4895525;29;20049;-75
2023/09/23 05:09:49;;;;;;;14.20;10.80;;;;;;;14.41;71.95;99150.13;4895659;29;20439;-75
2023/09/23 05:12:16;;;;;;;16.90;12.57;;;;;;;14.42;71.99;99151.81;4895403;29;20059;-76
2023/09/23 05:14:43;;;;;;;17.90;12.98;;;;;;;14.43;72.10;99158.81;4895530;29;20112;-75
2023/09/23 05:17:14;;;;;;;15.93;12.57;;;;;;;14.42;72.07;99163.25;4895556;29;20084;-75
2023/09/23 05:19:46;;;;;;;15.88;11.82;;;;;;;14.41;72.06;99161.56;4895271;29;20049;-76
2023/09/23 05:22:13;;;;;;;15.27;12.37;;;;;;;14.42;72.13;99163.25;4894032;29;20056;-75
2023/09/23 05:24:41;;;;;;;16.98;13.35;;;;;;;14.46;72.27;99169.97;4894285;29;20390;-76
2023/09/23 05:27:09;;;;;;;16.23;12.98;;;;;;;14.48;72.02;99166.34;4895653;29;20056;-75
2023/09/23 05:29:36;;;;;;;18.83;13.70;;;;;;;14.48;72.09;99174.28;4895416;29;20052;-76
2023/09/23 05:32:03;;;;;;;20.58;13.45;;;;;;;14.50;72.22;99172.38;4893950;29;20052;-76
2023/09/23 05:34:29;;;;;;;21.17;14.30;;;;;;;14.51;72.14;99182.84;4895102;29;20084;-74
2023/09/23 05:36:56;;;;;;;21.35;14.20;;;;;;;14.53;72.23;99175.59;4895493;29;20216;-77
2023/09/23 05:39:23;;;;;;;18.42;14.38;;;;;;;14.54;72.20;99187.03;4895472;29;20079;-77
2023/09/23 05:41:51;;;;;;;19.92;14.82;;;;;;;14.53;72.23;99194.13;4894690;29;20052;-76
2023/09/23 05:44:18;;;;;;;18.27;13.00;;;;;;;14.55;72.16;99196.66;4895192;29;20052;-75
2023/09/23 05:46:48;;;;;;;21.55;14.85;;;;;;;14.56;72.36;99200.97;4897533;29;20048;-76
2023/09/23 05:49:15;;;;;;;21.23;15.48;;;;;;;14.57;72.26;99206.16;4898671;29;20059;-77
2023/09/23 05:51:43;;;;;;;20.75;14.43;;;;;;;14.59;72.31;99211.34;4898021;29;20148;-76
2023/09/23 05:54:10;;;;;;;23.42;15.60;;;;;;;14.61;72.34;99217.31;4898308;29;20048;-76
2023/09/23 05:56:37;;;;;;;21.98;14.85;;;;;;;14.63;72.09;99223.34;4897313;29;20131;-75
2023/09/23 05:59:05;;;;;;;22.92;16.17;;;;;;;14.64;72.45;99225.03;4897205;29;20128;-76
2023/09/23 06:01:33;;;;;;;21.90;16.13;;;;;;;14.66;72.21;99232.84;4897594;29;20144;-76
2023/09/23 06:04:01;;;;;;;22.52;16.10;;;;;;;14.68;72.40;99233.56;4897686;29;20049;-76
2023/09/23 06:06:28;;;;;;;21.00;15.52;;;;;;;14.69;72.36;99237.91;4898195;29;20064;-76
2023/09/23 06:08:57;;;;;;;22.42;16.67;;;;;;;14.70;72.30;99240.41;4898140;29;20056;-76
2023/09/23 06:11:23;;;;;;;25.42;16.85;;;;;;;14.71;72.31;99247.41;4896752;29;20104;-75
2023/09/23 06:13:50;;;;;;;23.35;16.63;;;;;;;14.72;72.29;99246.44;4897373;29;20044;-76
2023/09/23 06:16:16;;;;;;;23.52;17.08;;;;;;;14.74;72.37;99246.31;4898240;29;20058;-77
2023/09/23 06:18:43;;;;;;;22.05;16.92;;;;;;;14.75;72.19;99257.72;4898205;29;20052;-76
2023/09/23 06:21:10;;;;;;;24.33;16.55;;;;;;;14.77;72.22;99266.44;4896731;29;20139;-76
2023/09/23 06:23:36;;;;;;;22.45;16.15;;;;;;;14.77;72.41;99277.03;4897179;29;20048;-76
2023/09/23 06:26:05;;;;;;;23.08;16.77;;;;;;;14.79;72.42;99288.31;4897765;29;20705;-76
2023/09/23 06:28:34;;;;;;;23.58;16.95;;;;;;;14.80;72.28;99285.56;4897805;29;20052;-76
2023/09/23 06:31:01;;;;;;;21.98;16.42;;;;;;;14.82;72.12;99288.09;4897904;29;20473;-76
2023/09/23 06:33:29;;;;;;;21.38;15.75;;;;;;;14.82;72.19;99301.34;4896122;29;20048;-76
2023/09/23 06:35:55;;;;;;;21.45;14.63;;;;;;;14.84;72.36;99304.72;4897778;29;20052;-76
2023/09/23 06:38:22;;;;;;;22.48;14.73;;;;;;;14.87;72.30;99309.75;4897587;29;20052;-76
2023/09/23 06:40:54;;;;;;;17.55;14.23;;;;;;;14.86;71.92;99310.72;4897581;29;20056;-76
2023/09/23 06:43:21;;;;;;;18.90;13.65;;;;;;;14.91;72.23;99318.28;4896623;29;20040;-75
2023/09/23 06:45:58;;;;;;;21.20;13.73;;;;;;;14.89;71.64;99323.72;4895406;29;20391;-75
2023/09/23 06:48:25;;;;;;;18.63;13.77;;;;;;;14.93;72.06;99330.44;4896464;29;20048;-76
2023/09/23 06:51:03;;;;;;;18.40;13.57;;;;;;;14.90;71.34;99329.84;4895213;29;20557;-75
2023/09/23 06:53:30;;;;;;;20.30;12.40;;;;;;;14.93;71.79;99335.75;4895953;29;20517;-75
2023/09/23 06:55:57;;;;;;;18.95;12.68;;;;;;;14.92;71.54;99334.03;4895978;29;20112;-77
2023/09/23 06:58:23;;;;;;;15.52;12.35;;;;;;;14.92;71.70;99333.22;4897494;29;20052;-77
2023/09/23 07:00:50;;;;;;;16.65;11.75;;;;;;;14.93;71.77;99340.19;4895856;29;20083;-76
2023/09/23 07:03:17;;;;;;;19.70;12.55;;;;;;;14.93;72.20;99332.25;4896934;29;20049;-77
2023/09/23 07:05:43;;;;;;;18.52;12.40;;;;;;;14.94;72.37;99344.53;4897058;29;20123;-76
2023/09/23 07:08:10;;;;;;;20.35;11.38;;;;;;;14.97;72.35;99338.97;4896912;29;20542;-75
2023/09/23 07:10:39;;;;;;;16.83;11.57;;;;;;;15.00;72.15;99352.00;4896867;29;20710;-76
2023/09/23 07:13:06;;;;;;;15.27;11.05;;;;;;;15.04;72.17;99349.91;4897213;29;20450;-75
2023/09/23 07:15:37;;;;;;;13.02;10.15;;;;;;;15.09;72.12;99358.31;4896006;29;20049;-75
2023/09/23 07:18:08;;;;;;;17.27;10.88;;;;;;;15.13;71.51;99362.41;4896801;29;20545;-75
2023/09/23 07:20:35;;;;;;;15.68;10.30;;;;;;;15.16;72.01;99362.16;4896362;29;20395;-76
2023/09/23 07:23:02;;;;;;;13.38;9.38;;;;;;;15.19;71.87;99358.41;4896847;29;20048;-76
2023/09/23 07:25:29;;;;;;;13.55;10.00;;;;;;;15.21;71.96;99362.63;4895440;29;20065;-77
2023/09/23 07:27:59;;;;;;;12.02;9.88;;;;;;;15.23;71.54;99363.34;4896772;29;20057;-76
2023/09/23 07:30:26;;;;;;;16.42;9.85;;;;;;;15.28;71.97;99375.38;4895833;29;20417;-76
2023/09/23 07:32:53;;;;;;;13.25;8.77;;;;;;;15.30;71.64;99363.66;4896521;29;20063;-76
2023/09/23 07:35:20;;;;;;;11.25;7.93;;;;;;;15.32;71.78;99374.13;4896853;29;20056;-77
2023/09/23 07:37:46;;;;;;;11.55;8.18;;;;;;;15.34;71.77;99374.84;4896773;29;20056;-75
2023/09/23 07:40:13;;;;;;;13.02;8.63;;;;;;;15.38;71.87;99370.97;4896099;29;20131;-76
2023/09/23 07:42:40;;;;;;;14.65;8.90;;;;;;;15.41;71.69;99369.88;4896517;29;20060;-76
2023/09/23 07:45:08;;;;;;;12.43;8.65;;;;;;;15.45;71.79;99377.47;4896365;29;20049;-76
2023/09/23 07:47:35;;;;;;;10.88;7.78;;;;;;;15.49;71.87;99386.84;4896510;29;20434;-76
2023/09/23 07:50:02;;;;;;;10.82;7.65;;;;;;;15.55;71.45;99393.41;4896326;29;20044;-75
2023/09/23 07:52:29;;;;;;;12.73;7.97;;;;;;;15.57;71.47;99398.59;4896204;29;20061;-76
2023/09/23 07:54:55;;;;;;;11.10;8.05;;;;;;;15.61;71.65;99406.19;4896311;29;20120;-76
2023/09/23 07:57:22;;;;;;;9.10;6.82;;;;;;;15.66;71.65;99405.78;4895329;29;20096;-76
2023/09/23 07:59:48;;;;;;;10.45;7.50;;;;;;;15.71;71.70;99410.72;4894833;29;20060;-78
2023/09/23 08:02:15;;;;;;;11.15;7.10;;;;;;;15.74;70.90;99416.59;4895876;29;20494;-77
2023/09/23 08:04:42;;;;;;;11.30;6.85;;;;;;;15.77;70.80;99412.84;4896071;29;20131;-76
2023/09/23 08:07:08;;;;;;;8.25;6.93;;;;;;;15.81;70.88;99416.09;4895839;29;20060;-75
2023/09/23 08:09:35;;;;;;;8.80;6.20;;;;;;;15.82;70.52;99421.28;4896000;29;20053;-75
2023/09/23 08:12:01;;;;;;;10.40;6.28;;;;;;;15.84;70.55;99421.13;4895633;29;20095;-77
2023/09/23 08:14:28;;;;;;;14.18;6.95;;;;;;;15.85;70.73;99434.25;4895718;29;20052;-76
2023/09/23 08:16:55;;;;;;;10.57;6.10;;;;;;;15.87;70.85;99436.78;4895874;29;20059;-76
2023/09/23 08:19:23;;;;;;;8.75;6.38;;;;;;;15.89;70.61;99448.13;4894831;29;20052;-76
2023/09/23 08:21:52;;;;;;;11.30;6.20;;;;;;;15.92;70.91;99447.84;4895481;29;20143;-76
2023/09/23 08:24:20;;;;;;;7.78;5.75;;;;;;;15.95;70.91;99454.75;4895913;29;20094;-76
2023/09/23 08:26:47;;;;;;;10.90;5.90;;;;;;;15.97;70.79;99448.38;4896273;29;20081;-76
2023/09/23 08:29:16;;;;;;;8.52;6.32;;;;;;;16.01;70.64;99459.56;4895812;29;20058;-76
2023/09/23 08:31:43;;;;;;;9.18;6.22;;;;;;;16.03;70.50;99465.56;4895630;29;20060;-75
2023/09/23 08:34:10;;;;;;;10.90;5.85;;;;;;;16.05;70.41;99466.28;4895626;29;20528;-76
2023/09/23 08:36:36;;;;;;;12.32;6.80;;;;;;;16.07;70.61;99461.66;4895809;29;20049;-76
2023/09/23 08:39:05;;;;;;;11.68;6.53;;;;;;;16.10;70.42;99457.91;4895844;29;20163;-76
2023/09/23 08:41:33;;;;;;;11.20;6.18;;;;;;;16.12;70.07;99463.94;4895560;29;20553;-76
2023/09/23 08:44:04;;;;;;;10.82;6.25;;;;;;;16.14;70.06;99468.16;4895411;29;20070;-76
2023/09/23 08:46:32;;;;;;;10.18;6.80;;;;;;;16.18;70.34;99463.41;4895969;29;20079;-75
2023/09/23 08:48:59;;;;;;;10.85;6.43;;;;;;;16.19;69.95;99473.09;4895697;29;20057;-76
2023/09/23 08:51:30;;;;;;;8.65;5.75;;;;;;;16.20;69.80;99482.72;4895504;29;20470;-77
2023/09/23 08:53:56;;;;;;;10.50;5.45;;;;;;;16.21;70.06;99479.09;4894170;29;20056;-76
2023/09/23 08:56:23;;;;;;;9.93;6.15;;;;;;;16.21;70.19;99489.72;4895681;29;20053;-76
2023/09/23 08:58:50;;;;;;;10.15;6.07;;;;;;;16.23;70.14;99486.94;4895947;29;20071;-76
2023/09/23 09:01:17;;;;;;;11.38;5.30;;;;;;;16.24;70.22;99491.25;4895881;29;20056;-76
2023/09/23 09:03:45;;;;;;;15.00;6.38;;;;;;;16.25;70.41;99485.81;4895124;29;20052;-76
2023/09/23 09:06:16;;;;;;;10.05;6.03;;;;;;;16.28;69.52;99492.69;4895659;29;20108;-76
2023/09/23 09:08:43;;;;;;;9.00;6.22;;;;;;;16.33;70.30;99494.97;4894697;29;20108;-77
2023/09/23 09:11:10;;;;;;;9.25;5.88;;;;;;;16.37;70.31;99494.56;4894514;29;20057;-76
2023/09/23 09:13:37;;;;;;;9.27;5.80;;;;;;;16.41;70.44;99505.78;4894901;29;20131;-76
2023/09/23 09:16:05;;;;;;;14.10;6.72;;;;;;;16.45;70.34;99507.16;4895752;29;20084;-76
2023/09/23 09:18:32;;;;;;;11.98;7.03;;;;;;;16.51;70.08;99504.00;4895595;29;20088;-76
2023/09/23 09:20:59;;;;;;;8.77;6.10;;;;;;;16.55;70.35;99512.53;4897332;29;20056;-77
2023/09/23 09:23:29;;;;;;;12.88;6.68;;;;;;;16.59;70.22;99524.59;4898606;29;20064;-76
2023/09/23 09:25:56;;;;;;;10.43;6.10;;;;;;;16.65;70.15;99517.91;4898896;29;20048;-75
2023/09/23 09:28:23;;;;;;;9.70;5.97;;;;;;;16.68;69.80;99526.44;4898999;29;20148;-76
2023/09/23 09:30:55;;;;;;;7.90;5.60;;;;;;;16.71;68.77;99521.84;4898633;29;20128;-76
2023/09/23 09:33:25;;;;;;;9.60;5.85;;;;;;;16.75;69.66;99531.25;4889923;29;20082;-75
2023/09/23 09:35:55;;;;;;;8.95;5.65;;;;;;;16.78;69.50;99529.16;4898371;29;20076;-75
2023/09/23 09:38:24;;;;;;;9.80;5.88;;;;;;;16.84;69.84;99526.94;4894965;29;20053;-76
2023/09/23 09:41:00;;;;;;;10.95;5.60;;;;;;;16.85;69.02;99525.97;4895341;29;20060;-76
2023/09/23 09:43:28;;;;;;;13.27;5.80;;;;;;;16.92;69.71;99535.06;4882353;29;20060;-75
2023/09/23 09:45:56;;;;;;;7.97;5.45;;;;;;;16.96;69.55;99536.50;4898652;29;20068;-77
2023/09/23 09:48:26;;;;;;;10.07;6.45;;;;;;;16.99;69.49;99533.56;4896981;29;20060;-75
2023/09/23 09:50:54;;;;;;;10.60;5.70;;;;;;;17.01;69.12;99542.25;4898539;29;20076;-76
2023/09/23 09:53:22;;;;;;;10.63;5.82;;;;;;;17.04;69.24;99551.75;4898136;29;20049;-76
2023/09/23 09:55:50;;;;;;;9.15;5.15;;;;;;;17.05;68.81;99551.66;4898352;29;20044;-75
2023/09/23 09:58:16;;;;;;;12.20;5.22;;;;;;;17.06;68.95;99558.69;4896951;29;20056;-75
2023/09/23 10:00:45;;;;;;;12.02;5.50;;;;;;;17.08;69.08;99563.03;4898395;29;20063;-75
2023/09/23 10:03:12;;;;;;;12.02;5.25;;;;;;;17.08;69.07;99560.38;4898534;29;20541;-75
2023/09/23 10:05:46;;;;;;;7.18;5.03;;;;;;;17.07;67.99;99564.81;4898414;29;20402;-75
2023/09/23 10:08:15;;;;;;;11.57;5.47;;;;;;;17.07;68.42;99564.81;4897940;29;20056;-76
2023/09/23 10:10:47;;;;;;;9.52;5.13;;;;;;;17.08;68.18;99565.69;4896401;29;20056;-76
2023/09/23 10:13:16;;;;;;;10.88;5.22;;;;;;;17.11;69.11;99562.72;4897621;29;20124;-75
2023/09/23 10:15:43;;;;;;;9.50;4.70;;;;;;;17.14;69.19;99570.44;4898358;29;20052;-75
2023/09/23 10:18:13;;;;;;;6.40;4.72;;;;;;;17.18;69.02;99572.72;4897568;29;20052;-75
2023/09/23 10:20:49;;;;;;;7.28;4.47;;;;;;;17.23;68.92;99566.16;4897925;29;20425;-75
2023/09/23 10:23:17;;;;;;;7.88;4.90;;;;;;;17.28;69.06;99569.25;4897864;29;20048;-75
2023/09/23 10:25:44;;;;;;;7.90;4.07;;;;;;;17.34;69.29;99575.84;4897955;29;20059;-76
2023/09/23 10:28:23;;;;;;;6.95;4.35;;;;;;;17.37;67.51;99581.72;4895268;29;20494;-76
2023/09/23 10:31:03;;;;;;;10.52;4.68;;;;;;;17.41;67.20;99580.47;4897276;29;20060;-75
2023/09/23 10:33:34;;;;;;;6.97;4.30;;;;;;;17.48;67.41;99586.09;4897724;29;20143;-76
2023/09/23 10:36:03;;;;;;;8.32;3.75;;;;;;;17.53;68.01;99589.19;4897724;29;20084;-75
2023/09/23 10:38:34;;;;;;;8.98;4.05;;;;;;;17.55;67.68;99589.03;4896049;29;20060;-76
2023/09/23 10:41:02;;;;;;;10.40;4.20;;;;;;;17.56;67.88;99586.25;4897968;29;20053;-76
2023/09/23 10:43:29;;;;;;;11.07;4.57;;;;;;;17.58;67.59;99600.25;4896473;29;20862;-75
2023/09/23 10:45:57;;;;;;;8.38;3.83;;;;;;;17.61;68.22;99599.16;4897628;29;20143;-75
2023/09/23 10:48:25;;;;;;;8.30;3.85;;;;;;;17.64;68.21;99604.19;4897052;29;20135;-77
2023/09/23 10:50:52;;;;;;;10.02;3.90;;;;;;;17.72;68.87;99592.88;4896352;29;20052;-75
2023/09/23 10:53:22;;;;;;;10.15;4.00;;;;;;;17.81;68.07;99602.69;4897075;29;20083;-77
2023/09/23 10:55:49;;;;;;;6.15;3.55;;;;;;;17.90;68.28;99611.66;4896475;29;20148;-76
2023/09/23 10:58:16;;;;;;;10.57;3.50;;;;;;;17.97;67.72;99614.59;4897237;29;20056;-76
2023/09/23 11:00:43;;;;;;;7.70;3.15;;;;;;;18.02;67.60;99616.84;4896440;29;20060;-76
2023/09/23 11:03:12;;;;;;;9.15;3.60;;;;;;;18.06;67.17;99612.94;4895668;29;20470;-75
2023/09/23 11:05:39;;;;;;;6.10;3.50;;;;;;;18.10;67.19;99615.19;4895895;29;20557;-75
2023/09/23 11:08:10;;;;;;;9.55;3.30;;;;;;;18.16;67.55;99624.44;4897278;29;20056;-75
2023/09/23 11:10:44;;;;;;;5.60;2.75;;;;;;;18.24;66.54;99623.72;4895246;29;20517;-75
2023/09/23 11:13:13;;;;;;;8.88;3.42;;;;;;;18.36;67.59;99633.25;4895446;29;20060;-76
2023/09/23 11:15:41;;;;;;;9.18;3.63;;;;;;;18.46;66.64;99635.06;4895752;29;20057;-75
2023/09/23 11:18:14;;;;;;;5.30;3.00;;;;;;;18.52;65.05;99634.53;4896727;29;20088;-75
2023/09/23 11:20:42;;;;;;;5.28;2.45;;;;;;;18.57;66.14;99640.25;4896931;29;20543;-77
2023/09/23 11:23:10;;;;;;;5.25;2.45;;;;;;;18.60;65.69;99642.66;4896752;29;20053;-75
2023/09/23 11:25:49;;;;;;;4.00;2.83;;;;;;;18.60;64.61;99647.13;4896754;29;20455;-77
2023/09/23 11:28:23;;;;;;;5.85;2.72;;;;;;;18.69;65.77;99651.59;4896601;29;20056;-76
2023/09/23 11:30:51;;;;;;;5.68;2.28;;;;;;;18.81;66.96;99646.13;4896307;29;20545;-76
2023/09/23 11:33:18;;;;;;;7.88;2.80;;;;;;;18.92;66.17;99666.44;4896478;29;20052;-75